Terminal Aerodrome Forecast
Issued by NWS Twin Cities, MN

Home | Current Version | Previous Version | Graphics & Text | Print | Product List | Glossary On
Versions: 1 2 3 4 5 6 7 8 9 10 11 12 13 14 15 16
000
FTUS43 KMPX 181120
TAFEAU
TAF
KEAU 181120Z 1812/1912 10004KT P6SM BKN110
     FM181700 13006KT P6SM -RA BKN060 OVC100
     FM182300 12006KT P6SM VCSH OVC060
     FM190400 12005KT P6SM OVC060=

USA.gov is the U.S. government's official web portal to all federal, state and local government web resources and services.